createdAt,value
2022-08-20T00:00:00.611Z,9
2022-08-20T00:01:02.011Z,9
2022-08-20T00:02:00.743Z,8
2022-08-20T00:03:00.610Z,9
2022-08-20T00:04:01.599Z,9
2022-08-20T00:05:00.613Z,9
2022-08-20T00:06:00.610Z,9
2022-08-20T00:07:00.620Z,9
2022-08-20T00:08:00.625Z,10
2022-08-20T00:09:00.613Z,10
2022-08-20T00:10:00.615Z,10
2022-08-20T00:11:00.627Z,10
2022-08-20T00:12:00.708Z,10
2022-08-20T00:13:00.621Z,8
2022-08-20T00:14:00.617Z,10
2022-08-20T00:15:00.672Z,9
2022-08-20T00:17:00.615Z,10
2022-08-20T00:18:00.614Z,9
2022-08-20T00:19:00.615Z,9
2022-08-20T00:20:00.696Z,9
2022-08-20T00:21:00.625Z,10
2022-08-20T00:22:00.619Z,10
2022-08-20T00:23:00.622Z,9
2022-08-20T00:24:00.626Z,9
2022-08-20T00:25:00.626Z,10
2022-08-20T00:26:00.617Z,9
2022-08-20T00:27:00.622Z,9
2022-08-20T00:28:00.632Z,9
2022-08-20T00:29:00.623Z,9
2022-08-20T00:31:00.613Z,9
2022-08-20T00:32:00.637Z,10
2022-08-20T00:33:00.627Z,8
2022-08-20T00:34:00.641Z,9
2022-08-20T00:37:00.633Z,9
2022-08-20T00:38:01.025Z,9
2022-08-20T00:39:00.633Z,10
2022-08-20T00:40:00.661Z,9
2022-08-20T00:41:00.731Z,8
2022-08-20T00:42:00.636Z,9
2022-08-20T00:43:00.643Z,9
2022-08-20T00:44:01.675Z,9
2022-08-20T00:45:00.629Z,8
2022-08-20T00:47:00.646Z,9
2022-08-20T00:48:00.644Z,9
2022-08-20T00:49:01.712Z,10
2022-08-20T00:50:00.634Z,10
2022-08-20T00:51:00.650Z,9
2022-08-20T00:52:00.640Z,9
2022-08-20T00:53:00.642Z,9
2022-08-20T00:54:00.637Z,9
2022-08-20T00:55:00.636Z,8
2022-08-20T00:56:00.637Z,9
2022-08-20T00:57:00.639Z,9
2022-08-20T00:58:01.941Z,10
2022-08-20T00:59:00.647Z,9
2022-08-20T01:00:00.641Z,9
2022-08-20T01:01:00.658Z,9
2022-08-20T01:02:00.695Z,9
2022-08-20T01:03:00.652Z,9
2022-08-20T01:04:00.657Z,8
2022-08-20T01:05:00.654Z,9
2022-08-20T01:06:00.653Z,9
2022-08-20T01:08:00.642Z,9
2022-08-20T01:09:00.654Z,9
2022-08-20T01:10:00.644Z,9
2022-08-20T01:11:00.652Z,9
2022-08-20T01:12:00.645Z,9
2022-08-20T01:13:00.676Z,9
2022-08-20T01:14:00.722Z,10
2022-08-20T01:15:00.648Z,9
2022-08-20T01:16:00.653Z,9
2022-08-20T01:17:00.686Z,10
2022-08-20T01:18:00.656Z,9
2022-08-20T01:19:00.658Z,10
2022-08-20T01:20:00.649Z,9
2022-08-20T01:21:00.646Z,8
2022-08-20T01:22:00.654Z,9
2022-08-20T01:23:00.698Z,10
2022-08-20T01:24:00.716Z,9
2022-08-20T01:25:00.668Z,9
2022-08-20T01:26:00.674Z,10
2022-08-20T01:27:00.666Z,9
2022-08-20T01:29:00.661Z,10
2022-08-20T01:30:00.654Z,9
2022-08-20T01:31:00.661Z,10
2022-08-20T01:32:00.654Z,9
2022-08-20T01:33:00.659Z,8
2022-08-20T01:35:00.680Z,9
2022-08-20T01:36:00.670Z,10
2022-08-20T01:37:00.671Z,9
2022-08-20T01:38:00.665Z,9
2022-08-20T01:39:00.668Z,9
2022-08-20T01:40:00.726Z,9
2022-08-20T01:41:00.673Z,10
2022-08-20T01:42:00.668Z,9
2022-08-20T01:43:00.668Z,9
2022-08-20T01:44:00.680Z,9
2022-08-20T01:45:01.791Z,9
2022-08-20T01:46:00.664Z,9
2022-08-20T01:47:00.682Z,9
2022-08-20T01:48:01.118Z,9
2022-08-20T01:50:00.668Z,9
2022-08-20T01:51:00.665Z,9
2022-08-20T01:52:00.693Z,9
2022-08-20T01:53:00.683Z,9
2022-08-20T01:54:00.689Z,9
2022-08-20T01:55:00.663Z,10
2022-08-20T01:56:00.674Z,9
2022-08-20T01:57:00.689Z,10
2022-08-20T01:58:00.677Z,9
2022-08-20T01:59:00.681Z,9
2022-08-20T02:00:00.674Z,9
2022-08-20T02:01:00.671Z,10
2022-08-20T02:02:00.767Z,9
2022-08-20T02:03:00.674Z,9
2022-08-20T02:05:00.686Z,9
2022-08-20T02:06:00.702Z,9
2022-08-20T02:07:00.675Z,9
2022-08-20T02:08:00.695Z,9
2022-08-20T02:09:00.699Z,9
2022-08-20T02:11:00.688Z,9
2022-08-20T02:12:00.771Z,9
2022-08-20T02:13:00.683Z,9
2022-08-20T02:14:00.682Z,9
2022-08-20T02:15:00.684Z,9
2022-08-20T02:16:00.683Z,9
2022-08-20T02:17:00.789Z,9
2022-08-20T02:18:00.684Z,9
2022-08-20T02:19:00.702Z,9
2022-08-20T02:20:00.700Z,9
2022-08-20T02:21:00.705Z,10
2022-08-20T02:22:00.687Z,9
2022-08-20T02:23:00.685Z,9
2022-08-20T02:24:00.682Z,9
2022-08-20T02:25:00.682Z,9
2022-08-20T02:26:00.703Z,9
2022-08-20T02:27:00.713Z,10
2022-08-20T02:28:00.695Z,9
2022-08-20T02:29:01.231Z,9
2022-08-20T02:30:00.703Z,10
2022-08-20T02:32:32.147Z,10
2022-08-20T02:33:00.689Z,9
2022-08-20T02:35:00.697Z,9
2022-08-20T02:37:00.698Z,9
2022-08-20T02:38:00.742Z,10
2022-08-20T02:39:00.694Z,8
2022-08-20T02:40:00.816Z,8
2022-08-20T02:41:00.698Z,9
2022-08-20T02:42:00.714Z,7
2022-08-20T02:44:00.705Z,8
2022-08-20T02:45:00.734Z,7
2022-08-20T02:46:00.704Z,7
2022-08-20T02:47:00.701Z,7
2022-08-20T02:48:00.704Z,6
2022-08-20T02:49:00.704Z,6
2022-08-20T02:50:00.698Z,6
2022-08-20T02:51:00.721Z,6
2022-08-20T02:52:00.707Z,7
2022-08-20T02:53:00.702Z,6
2022-08-20T02:55:00.735Z,6
2022-08-20T02:56:00.696Z,6
2022-08-20T02:57:00.790Z,6
2022-08-20T02:58:00.711Z,5
2022-08-20T02:59:00.707Z,6
2022-08-20T03:00:00.709Z,6
2022-08-20T03:02:01.205Z,6
2022-08-20T03:03:00.705Z,6
2022-08-20T03:04:00.712Z,5
2022-08-20T03:05:00.707Z,5
2022-08-20T03:06:00.714Z,6
2022-08-20T03:07:00.703Z,6
2022-08-20T03:08:00.715Z,5
2022-08-20T03:09:00.706Z,6
2022-08-20T03:10:00.723Z,6
2022-08-20T03:11:00.722Z,5
2022-08-20T03:12:00.708Z,6
2022-08-20T03:13:00.739Z,5
2022-08-20T03:14:00.721Z,6
2022-08-20T03:16:00.711Z,6
2022-08-20T03:17:00.723Z,6
2022-08-20T03:18:00.717Z,5
2022-08-20T03:19:00.752Z,6
2022-08-20T03:20:00.715Z,7
2022-08-20T03:21:00.730Z,6
2022-08-20T03:22:00.721Z,6
2022-08-20T03:23:00.741Z,6
2022-08-20T03:24:00.739Z,6
2022-08-20T03:25:00.720Z,6
2022-08-20T03:26:00.739Z,7
2022-08-20T03:27:00.713Z,6
2022-08-20T03:28:01.155Z,6
2022-08-20T03:29:00.729Z,6
2022-08-20T03:30:00.716Z,6
2022-08-20T03:31:00.743Z,7
2022-08-20T03:32:03.011Z,6
2022-08-20T03:33:00.723Z,7
2022-08-20T03:34:00.727Z,6
2022-08-20T03:35:00.719Z,6
2022-08-20T03:36:00.810Z,7
2022-08-20T03:37:00.739Z,6
2022-08-20T03:38:00.846Z,6
2022-08-20T03:39:00.728Z,6
2022-08-20T03:40:00.784Z,6
2022-08-20T03:42:00.724Z,7
2022-08-20T03:43:00.868Z,6
2022-08-20T03:44:00.735Z,7
2022-08-20T03:45:00.730Z,7
2022-08-20T03:46:00.741Z,7
2022-08-20T03:47:00.733Z,7
2022-08-20T03:48:00.784Z,7
2022-08-20T03:49:00.977Z,6
2022-08-20T03:50:00.745Z,7
2022-08-20T03:51:00.753Z,7
2022-08-20T03:52:00.748Z,6
2022-08-20T03:53:00.749Z,6
2022-08-20T03:54:00.749Z,7
2022-08-20T03:56:02.470Z,7
2022-08-20T03:57:00.735Z,7
2022-08-20T03:58:00.765Z,7
2022-08-20T03:59:00.738Z,7
2022-08-20T04:00:00.755Z,7
2022-08-20T04:01:00.780Z,7
2022-08-20T04:02:00.799Z,7
2022-08-20T04:03:00.872Z,8
2022-08-20T04:04:00.761Z,7
2022-08-20T04:05:00.791Z,7
2022-08-20T04:06:00.740Z,7
2022-08-20T04:07:00.746Z,8
2022-08-20T04:08:03.057Z,7
2022-08-20T04:09:00.753Z,7
2022-08-20T04:10:00.748Z,7
2022-08-20T04:12:00.759Z,8
2022-08-20T04:13:01.614Z,8
2022-08-20T04:14:00.739Z,8
2022-08-20T04:15:00.747Z,7
2022-08-20T04:17:00.767Z,7
2022-08-20T04:18:00.758Z,8
2022-08-20T04:19:01.750Z,7
2022-08-20T04:20:00.749Z,8
2022-08-20T04:21:00.755Z,8
2022-08-20T04:22:00.764Z,8
2022-08-20T04:23:00.799Z,8
2022-08-20T04:24:00.760Z,8
2022-08-20T04:25:00.781Z,8
2022-08-20T04:26:00.786Z,8
2022-08-20T04:27:00.753Z,8
2022-08-20T04:28:00.744Z,8
2022-08-20T04:29:00.750Z,8
2022-08-20T04:30:00.756Z,8
2022-08-20T04:31:00.756Z,8
2022-08-20T04:32:00.758Z,7
2022-08-20T04:33:00.776Z,8
2022-08-20T04:35:00.751Z,8
2022-08-20T04:36:00.761Z,8
2022-08-20T04:38:00.764Z,8
2022-08-20T04:39:00.760Z,9
2022-08-20T04:40:00.849Z,8
2022-08-20T04:42:00.765Z,9
2022-08-20T04:43:00.769Z,8
2022-08-20T04:45:00.754Z,8
2022-08-20T04:46:00.755Z,9
2022-08-20T04:47:00.754Z,8
2022-08-20T04:48:00.780Z,8
2022-08-20T04:49:00.758Z,8
2022-08-20T04:50:00.759Z,8
2022-08-20T04:51:00.759Z,9
2022-08-20T04:52:00.762Z,8
2022-08-20T04:53:00.772Z,9
2022-08-20T04:54:00.761Z,10
2022-08-20T04:55:00.767Z,9
2022-08-20T04:56:00.764Z,9
2022-08-20T04:57:00.764Z,9
2022-08-20T04:59:00.765Z,9
2022-08-20T05:01:01.365Z,10
2022-08-20T05:02:00.769Z,10
2022-08-20T05:03:00.769Z,9
2022-08-20T05:04:00.774Z,10
2022-08-20T05:05:00.768Z,9
2022-08-20T05:06:00.771Z,10
2022-08-20T05:07:00.770Z,9
2022-08-20T05:08:00.775Z,10
2022-08-20T05:09:00.780Z,10
2022-08-20T05:10:00.775Z,9
2022-08-20T05:11:33.548Z,10
2022-08-20T05:12:00.812Z,10
2022-08-20T05:13:00.776Z,10
2022-08-20T05:14:00.777Z,10
2022-08-20T05:15:00.778Z,9
2022-08-20T05:16:00.775Z,10
2022-08-20T05:17:00.792Z,10
2022-08-20T05:19:00.771Z,9
2022-08-20T05:20:00.775Z,10
2022-08-20T05:22:00.816Z,10
2022-08-20T05:23:00.790Z,9
2022-08-20T05:24:00.781Z,9
2022-08-20T05:25:00.786Z,11
2022-08-20T05:26:00.779Z,9
2022-08-20T05:27:00.820Z,10
2022-08-20T05:28:00.782Z,10
2022-08-20T05:29:00.788Z,10
2022-08-20T05:30:00.776Z,10
2022-08-20T05:31:00.786Z,10
2022-08-20T05:32:00.854Z,9
2022-08-20T05:33:00.778Z,10
2022-08-20T05:34:00.785Z,9
2022-08-20T05:35:00.797Z,10
2022-08-20T05:36:00.788Z,9
2022-08-20T05:37:00.793Z,9
2022-08-20T05:38:00.788Z,10
2022-08-20T05:39:00.781Z,9
2022-08-20T05:40:00.832Z,10
2022-08-20T05:43:00.786Z,9
2022-08-20T05:44:00.784Z,8
2022-08-20T05:45:00.789Z,8
2022-08-20T05:46:00.782Z,9
2022-08-20T05:47:00.785Z,9
2022-08-20T05:48:00.796Z,10
2022-08-20T05:49:00.789Z,9
2022-08-20T05:50:00.798Z,9
2022-08-20T05:51:00.798Z,9
2022-08-20T05:52:00.791Z,10
2022-08-20T05:53:00.791Z,8
2022-08-20T05:54:00.809Z,9
2022-08-20T05:55:00.787Z,9
2022-08-20T05:56:00.791Z,9
2022-08-20T05:58:00.807Z,8
2022-08-20T05:59:00.802Z,11
2022-08-20T06:00:00.799Z,9
2022-08-20T06:01:00.883Z,9
2022-08-20T06:02:00.802Z,9
2022-08-20T06:03:00.799Z,8
2022-08-20T06:04:00.810Z,9
2022-08-20T06:05:00.810Z,9
2022-08-20T06:06:00.801Z,9
2022-08-20T06:07:00.798Z,9
2022-08-20T06:09:00.791Z,10
2022-08-20T06:10:00.801Z,9
2022-08-20T06:11:00.793Z,9
2022-08-20T06:12:00.792Z,9
2022-08-20T06:13:00.801Z,9
2022-08-20T06:15:00.808Z,10
2022-08-20T06:16:00.800Z,9
2022-08-20T06:17:00.795Z,10
2022-08-20T06:18:00.963Z,9
2022-08-20T06:19:02.761Z,9
2022-08-20T06:20:00.801Z,9
2022-08-20T06:21:00.799Z,9
2022-08-20T06:22:00.821Z,9
2022-08-20T06:23:00.816Z,9
2022-08-20T06:24:01.004Z,9
2022-08-20T06:26:00.799Z,9
2022-08-20T06:27:00.810Z,9
2022-08-20T06:28:00.814Z,9
2022-08-20T06:29:00.808Z,9
2022-08-20T06:30:00.804Z,8
2022-08-20T06:31:00.812Z,8
2022-08-20T06:32:00.803Z,9
2022-08-20T06:33:00.816Z,8
2022-08-20T06:34:00.821Z,8
2022-08-20T06:36:00.807Z,9
2022-08-20T06:37:00.831Z,8
2022-08-20T06:38:00.813Z,9
2022-08-20T06:40:00.863Z,8
2022-08-20T06:41:00.824Z,8
2022-08-20T06:42:00.841Z,9
2022-08-20T06:43:00.816Z,9
2022-08-20T06:44:00.813Z,10
2022-08-20T06:45:00.837Z,8
2022-08-20T06:46:00.814Z,9
2022-08-20T06:47:00.820Z,8
2022-08-20T06:49:00.814Z,9
2022-08-20T06:50:00.813Z,9
2022-08-20T06:51:01.205Z,8
2022-08-20T06:52:00.816Z,10
2022-08-20T06:53:00.852Z,8
2022-08-20T06:54:00.824Z,8
2022-08-20T06:55:00.827Z,8
2022-08-20T06:57:00.840Z,8
2022-08-20T06:58:00.830Z,7
2022-08-20T06:59:00.826Z,8
2022-08-20T07:00:00.828Z,8
2022-08-20T07:02:00.825Z,8
2022-08-20T07:03:00.844Z,7
2022-08-20T07:04:00.846Z,7
2022-08-20T07:06:00.849Z,7
2022-08-20T07:07:00.832Z,8
2022-08-20T07:08:00.838Z,8
2022-08-20T07:09:00.826Z,8
2022-08-20T07:10:00.826Z,8
2022-08-20T07:11:00.831Z,7
2022-08-20T07:12:00.844Z,7
2022-08-20T07:13:00.828Z,7
2022-08-20T07:15:00.833Z,7
2022-08-20T07:16:00.827Z,7
2022-08-20T07:19:00.852Z,6
2022-08-20T07:20:00.836Z,6
2022-08-20T07:21:00.826Z,7
2022-08-20T07:22:00.840Z,6
2022-08-20T07:24:00.841Z,6
2022-08-20T07:25:00.844Z,7
2022-08-20T07:26:00.837Z,6
2022-08-20T07:27:00.857Z,7
2022-08-20T07:28:00.842Z,7
2022-08-20T07:29:01.222Z,6
2022-08-20T07:30:00.845Z,6
2022-08-20T07:31:00.849Z,6
2022-08-20T07:33:00.856Z,6
2022-08-20T07:34:00.847Z,6
2022-08-20T07:35:00.840Z,6
2022-08-20T07:36:00.847Z,6
2022-08-20T07:37:00.849Z,5
2022-08-20T07:39:00.846Z,5
2022-08-20T07:40:00.866Z,5
2022-08-20T07:41:00.840Z,4
2022-08-20T07:42:00.851Z,4
2022-08-20T07:44:00.884Z,4
2022-08-20T07:45:00.842Z,5
2022-08-20T07:46:00.857Z,4
2022-08-20T07:47:00.849Z,3
2022-08-20T07:48:00.846Z,3
2022-08-20T07:49:00.879Z,3
2022-08-20T07:51:00.852Z,4
2022-08-20T07:52:00.865Z,4
2022-08-20T07:53:00.856Z,3
2022-08-20T07:55:00.860Z,3
2022-08-20T07:56:00.861Z,3
2022-08-20T07:58:00.856Z,3
2022-08-20T07:59:00.853Z,3
2022-08-20T08:00:00.860Z,3
2022-08-20T08:01:00.995Z,3
2022-08-20T08:02:00.863Z,3
2022-08-20T08:04:00.854Z,3
2022-08-20T08:05:00.854Z,3
2022-08-20T08:06:00.858Z,3
2022-08-20T08:07:00.887Z,4
2022-08-20T08:08:02.842Z,4
2022-08-20T08:09:00.869Z,4
2022-08-20T08:10:00.866Z,4
2022-08-20T08:11:00.869Z,4
2022-08-20T08:12:00.865Z,4
2022-08-20T08:13:00.864Z,4
2022-08-20T08:14:00.871Z,4
2022-08-20T08:15:00.858Z,4
2022-08-20T08:16:00.868Z,4
2022-08-20T08:17:00.867Z,4
2022-08-20T08:19:00.857Z,4
2022-08-20T08:20:00.864Z,4
2022-08-20T08:21:00.871Z,4
2022-08-20T08:22:00.864Z,4
2022-08-20T08:23:00.885Z,4
2022-08-20T08:24:00.895Z,4
2022-08-20T08:25:00.873Z,4
2022-08-20T08:26:00.910Z,4
2022-08-20T08:27:00.871Z,4
2022-08-20T08:29:00.866Z,4
2022-08-20T08:30:00.878Z,4
2022-08-20T08:31:00.880Z,4
2022-08-20T08:32:00.871Z,3
2022-08-20T08:33:00.877Z,4
2022-08-20T08:34:00.868Z,4
2022-08-20T08:35:00.876Z,4
2022-08-20T08:36:00.879Z,4
2022-08-20T08:37:00.893Z,4
2022-08-20T08:40:00.928Z,4
2022-08-20T08:41:00.885Z,3
2022-08-20T08:42:00.906Z,4
2022-08-20T08:43:00.886Z,4
2022-08-20T08:44:00.884Z,4
2022-08-20T08:47:00.883Z,4
2022-08-20T08:48:00.880Z,4
2022-08-20T08:49:00.907Z,3
2022-08-20T08:50:00.898Z,3
2022-08-20T08:51:00.882Z,4
2022-08-20T08:52:00.886Z,3
2022-08-20T08:53:00.903Z,3
2022-08-20T08:54:04.736Z,3
2022-08-20T08:56:00.888Z,3
2022-08-20T08:57:00.885Z,3
2022-08-20T08:58:00.897Z,3
2022-08-20T08:59:00.897Z,3
2022-08-20T09:01:01.802Z,3
2022-08-20T09:02:00.976Z,4
2022-08-20T09:03:01.219Z,4
2022-08-20T09:04:00.887Z,8
2022-08-20T09:05:00.895Z,13
2022-08-20T09:06:00.885Z,13
2022-08-20T09:07:00.888Z,13
2022-08-20T09:08:00.900Z,15
2022-08-20T09:09:00.885Z,14
2022-08-20T09:10:00.889Z,15
2022-08-20T09:11:00.899Z,14
2022-08-20T09:12:00.891Z,14
2022-08-20T09:13:00.894Z,14
2022-08-20T09:14:00.915Z,15
2022-08-20T09:15:00.916Z,15
2022-08-20T09:16:00.938Z,16
2022-08-20T09:17:00.893Z,15
2022-08-20T09:18:00.925Z,14
2022-08-20T09:19:00.894Z,14
2022-08-20T09:20:00.910Z,15
2022-08-20T09:22:00.891Z,15
2022-08-20T09:23:00.900Z,15
2022-08-20T09:24:00.904Z,15
2022-08-20T09:25:00.912Z,16
2022-08-20T09:26:00.903Z,15
2022-08-20T09:27:00.900Z,16
2022-08-20T09:28:00.906Z,15
2022-08-20T09:29:00.910Z,16
2022-08-20T09:30:00.900Z,15
2022-08-20T09:32:00.916Z,16
2022-08-20T09:33:00.902Z,16
2022-08-20T09:34:00.912Z,18
2022-08-20T09:35:00.916Z,18
2022-08-20T09:36:00.908Z,18
2022-08-20T09:37:00.916Z,18
2022-08-20T09:38:00.919Z,18
2022-08-20T09:39:03.078Z,18
2022-08-20T09:40:00.951Z,19
2022-08-20T09:41:00.940Z,18
2022-08-20T09:42:00.910Z,18
2022-08-20T09:44:00.918Z,15
2022-08-20T09:45:00.915Z,15
2022-08-20T09:46:00.916Z,16
2022-08-20T09:47:00.921Z,17
2022-08-20T09:48:00.913Z,14
2022-08-20T09:49:00.917Z,16
2022-08-20T09:50:00.928Z,16
2022-08-20T09:51:00.918Z,16
2022-08-20T09:53:00.915Z,16
2022-08-20T09:54:00.922Z,16
2022-08-20T09:56:00.922Z,16
2022-08-20T09:57:00.919Z,15
2022-08-20T09:58:00.929Z,16
2022-08-20T09:59:02.947Z,15
2022-08-20T10:00:00.926Z,15
2022-08-20T10:01:00.920Z,14
2022-08-20T10:02:00.969Z,14
2022-08-20T10:05:00.913Z,13
2022-08-20T10:06:00.928Z,12
2022-08-20T10:07:00.933Z,13
2022-08-20T10:08:00.933Z,14
2022-08-20T10:09:00.930Z,13
2022-08-20T10:10:00.931Z,13
2022-08-20T10:11:00.928Z,12
2022-08-20T10:12:00.937Z,14
2022-08-20T10:13:00.931Z,14
2022-08-20T10:14:00.928Z,14
2022-08-20T10:15:00.937Z,14
2022-08-20T10:17:00.958Z,12
2022-08-20T10:18:00.936Z,13
2022-08-20T10:19:00.929Z,14
2022-08-20T10:20:00.940Z,12
2022-08-20T10:21:00.933Z,13
2022-08-20T10:23:00.934Z,11
2022-08-20T10:24:00.927Z,13
2022-08-20T10:25:00.934Z,13
2022-08-20T10:26:00.938Z,12
2022-08-20T10:27:00.932Z,12
2022-08-20T10:28:00.944Z,12
2022-08-20T10:29:00.937Z,12
2022-08-20T10:30:00.955Z,11
2022-08-20T10:31:00.928Z,12
2022-08-20T10:33:00.940Z,11
2022-08-20T10:34:00.933Z,11
2022-08-20T10:35:00.940Z,11
2022-08-20T10:38:00.943Z,12
2022-08-20T10:39:00.936Z,12
2022-08-20T10:40:01.055Z,10
2022-08-20T10:41:00.965Z,11
2022-08-20T10:42:00.945Z,11
2022-08-20T10:43:00.946Z,11
2022-08-20T10:44:00.954Z,10
2022-08-20T10:45:00.958Z,12
2022-08-20T10:46:00.941Z,11
2022-08-20T10:47:00.952Z,11
2022-08-20T10:48:00.952Z,12
2022-08-20T10:49:00.964Z,11
2022-08-20T10:50:00.951Z,11
2022-08-20T10:51:00.956Z,11
2022-08-20T10:52:00.959Z,11
2022-08-20T10:53:00.949Z,11
2022-08-20T10:54:00.946Z,11
2022-08-20T10:55:00.966Z,11
2022-08-20T10:56:00.943Z,10
2022-08-20T10:57:00.956Z,12
2022-08-20T11:00:00.966Z,11
2022-08-20T11:01:00.972Z,11
2022-08-20T11:02:01.059Z,10
2022-08-20T11:03:00.966Z,10
2022-08-20T11:04:00.949Z,10
2022-08-20T11:05:00.956Z,10
2022-08-20T11:06:00.961Z,10
2022-08-20T11:07:00.961Z,11
2022-08-20T11:08:01.148Z,11
2022-08-20T11:09:00.954Z,11
2022-08-20T11:11:00.960Z,10
2022-08-20T11:12:00.965Z,7
2022-08-20T11:13:01.000Z,8
2022-08-20T11:14:00.968Z,8
2022-08-20T11:15:00.966Z,8
2022-08-20T11:16:00.967Z,9
2022-08-20T11:17:00.960Z,9
2022-08-20T11:18:00.965Z,9
2022-08-20T11:20:00.969Z,9
2022-08-20T11:21:00.964Z,8
2022-08-20T11:22:00.964Z,8
2022-08-20T11:23:00.975Z,8
2022-08-20T11:24:02.965Z,9
2022-08-20T11:25:00.976Z,9
2022-08-20T11:26:00.964Z,9
2022-08-20T11:27:00.969Z,10
2022-08-20T11:28:00.972Z,8
2022-08-20T11:30:00.966Z,9
2022-08-20T11:31:00.975Z,8
2022-08-20T11:33:00.973Z,11
2022-08-20T11:34:00.973Z,12
2022-08-20T11:35:09.840Z,10
2022-08-20T11:36:00.975Z,9
2022-08-20T11:37:00.975Z,10
2022-08-20T11:39:00.970Z,9
2022-08-20T11:41:00.984Z,8
2022-08-20T11:42:00.995Z,10
2022-08-20T11:43:17.573Z,8
2022-08-20T11:44:20.433Z,9
2022-08-20T11:45:00.981Z,9
2022-08-20T11:46:00.977Z,9
2022-08-20T11:47:00.985Z,8
2022-08-20T11:48:00.981Z,8
2022-08-20T11:49:00.992Z,7
2022-08-20T11:50:00.992Z,8
2022-08-20T11:51:00.979Z,9
2022-08-20T11:52:00.985Z,8
2022-08-20T11:53:01.635Z,9
2022-08-20T11:54:00.999Z,9
2022-08-20T11:55:01.011Z,10
2022-08-20T11:56:00.984Z,9
2022-08-20T11:58:01.299Z,9
2022-08-20T12:00:00.992Z,8
2022-08-20T12:01:00.994Z,9
2022-08-20T12:02:03.117Z,9
2022-08-20T12:03:01.248Z,10
2022-08-20T12:04:01.020Z,10
2022-08-20T12:05:00.996Z,9
2022-08-20T12:07:00.995Z,9
2022-08-20T12:08:00.993Z,9
2022-08-20T12:09:00.999Z,8
2022-08-20T12:10:01.013Z,8
2022-08-20T12:11:01.038Z,10
2022-08-20T12:12:01.010Z,10
2022-08-20T12:13:02.719Z,9
2022-08-20T12:14:01.001Z,10
2022-08-20T12:15:00.998Z,11
2022-08-20T12:16:01.002Z,10
2022-08-20T12:17:01.011Z,11
2022-08-20T12:18:01.071Z,9
2022-08-20T12:19:01.010Z,9
2022-08-20T12:20:01.038Z,9
2022-08-20T12:21:01.001Z,9
2022-08-20T12:22:01.005Z,8
2022-08-20T12:23:00.993Z,10
2022-08-20T12:24:01.015Z,9
2022-08-20T12:25:01.023Z,8
2022-08-20T12:26:01.014Z,9
2022-08-20T12:28:01.018Z,9
2022-08-20T12:30:01.001Z,9
2022-08-20T12:31:01.034Z,10
2022-08-20T12:32:01.003Z,9
2022-08-20T12:33:01.007Z,9
2022-08-20T12:34:01.010Z,9
2022-08-20T12:35:01.044Z,7
2022-08-20T12:36:01.020Z,4
2022-08-20T12:37:01.033Z,4
2022-08-20T12:38:01.014Z,2
2022-08-20T12:39:01.012Z,2
2022-08-20T12:40:01.123Z,2
2022-08-20T12:41:01.010Z,2
2022-08-20T12:42:01.015Z,2
2022-08-20T12:44:01.026Z,2
2022-08-20T12:45:01.017Z,2
2022-08-20T12:46:01.019Z,2
2022-08-20T12:47:01.029Z,2
2022-08-20T12:49:01.013Z,3
2022-08-20T12:50:01.110Z,2
2022-08-20T12:51:01.024Z,2
2022-08-20T12:52:01.021Z,2
2022-08-20T12:53:01.016Z,2
2022-08-20T12:54:01.025Z,2
2022-08-20T12:55:01.021Z,2
2022-08-20T12:56:01.027Z,2
2022-08-20T12:57:01.020Z,2
2022-08-20T12:58:01.017Z,2
2022-08-20T12:59:01.030Z,2
2022-08-20T13:00:01.111Z,2
2022-08-20T13:01:01.078Z,2
2022-08-20T13:02:13.958Z,2
2022-08-20T13:03:01.027Z,2
2022-08-20T13:05:04.947Z,2
2022-08-20T13:06:01.035Z,1
2022-08-20T13:07:01.053Z,2
2022-08-20T13:08:01.043Z,2
2022-08-20T13:10:01.117Z,1
2022-08-20T13:11:01.027Z,2
2022-08-20T13:12:01.037Z,2
2022-08-20T13:13:01.032Z,2
2022-08-20T13:14:01.028Z,2
2022-08-20T13:15:01.036Z,2
2022-08-20T13:16:01.033Z,2
2022-08-20T13:17:01.051Z,2
2022-08-20T13:18:01.041Z,2
2022-08-20T13:19:01.062Z,2
2022-08-20T13:20:01.051Z,2
2022-08-20T13:21:01.040Z,2
2022-08-20T13:22:01.032Z,2
2022-08-20T13:23:01.031Z,2
2022-08-20T13:24:01.039Z,2
2022-08-20T13:25:01.059Z,2
2022-08-20T13:26:01.035Z,2
2022-08-20T13:27:01.038Z,2
2022-08-20T13:28:01.037Z,2
2022-08-20T13:29:01.037Z,2
2022-08-20T13:31:01.044Z,2
2022-08-20T13:32:01.053Z,2
2022-08-20T13:33:01.054Z,2
2022-08-20T13:34:01.055Z,2
2022-08-20T13:35:01.048Z,3
2022-08-20T13:36:01.059Z,2
2022-08-20T13:37:01.043Z,2
2022-08-20T13:39:01.047Z,2
2022-08-20T13:40:01.087Z,2
2022-08-20T13:42:01.058Z,2
2022-08-20T13:44:01.059Z,3
2022-08-20T13:47:01.048Z,2
2022-08-20T13:48:01.044Z,2
2022-08-20T13:49:01.061Z,3
2022-08-20T13:50:01.062Z,2
2022-08-20T13:51:01.067Z,3
2022-08-20T13:53:01.047Z,3
2022-08-20T13:54:01.061Z,3
2022-08-20T13:55:01.059Z,2
2022-08-20T13:56:01.058Z,2
2022-08-20T13:57:01.062Z,3
2022-08-20T13:58:01.070Z,2
2022-08-20T13:59:01.059Z,2
2022-08-20T14:00:01.067Z,3
2022-08-20T14:01:01.151Z,3
2022-08-20T14:02:05.187Z,3
2022-08-20T14:03:01.064Z,3
2022-08-20T14:05:01.074Z,2
2022-08-20T14:07:01.071Z,3
2022-08-20T14:08:01.061Z,2
2022-08-20T14:09:01.064Z,2
2022-08-20T14:10:01.059Z,2
2022-08-20T14:11:01.074Z,3
2022-08-20T14:12:01.069Z,2
2022-08-20T14:13:01.076Z,3
2022-08-20T14:14:01.072Z,2
2022-08-20T14:15:01.081Z,2
2022-08-20T14:16:01.083Z,2
2022-08-20T14:17:01.063Z,2
2022-08-20T14:18:01.070Z,2
2022-08-20T14:19:01.073Z,2
2022-08-20T14:20:01.899Z,2
2022-08-20T14:21:01.086Z,2
2022-08-20T14:22:01.086Z,2
2022-08-20T14:23:01.077Z,2
2022-08-20T14:24:01.076Z,3
2022-08-20T14:26:01.091Z,2
2022-08-20T14:27:01.090Z,2
2022-08-20T14:28:01.083Z,2
2022-08-20T14:29:01.074Z,2
2022-08-20T14:30:01.084Z,2
2022-08-20T14:31:01.087Z,2
2022-08-20T14:33:01.082Z,3
2022-08-20T14:34:01.091Z,2
2022-08-20T14:35:01.091Z,2
2022-08-20T14:36:01.091Z,2
2022-08-20T14:37:01.084Z,2
2022-08-20T14:38:01.097Z,2
2022-08-20T14:39:01.099Z,3
2022-08-20T14:40:01.159Z,2
2022-08-20T14:41:01.090Z,2
2022-08-20T14:42:01.086Z,2
2022-08-20T14:43:01.092Z,2
2022-08-20T14:44:01.099Z,2
2022-08-20T14:45:01.098Z,2
2022-08-20T14:47:01.090Z,2
2022-08-20T14:48:01.100Z,2
2022-08-20T14:49:01.097Z,2
2022-08-20T14:50:01.092Z,2
2022-08-20T14:51:01.113Z,2
2022-08-20T14:52:01.095Z,2
2022-08-20T14:53:01.103Z,2
2022-08-20T14:54:01.106Z,2
2022-08-20T14:56:01.084Z,2
2022-08-20T14:57:02.078Z,2
2022-08-20T14:58:01.086Z,2
2022-08-20T15:00:01.120Z,2
2022-08-20T15:01:01.183Z,2
2022-08-20T15:02:01.095Z,2
2022-08-20T15:04:01.102Z,3
2022-08-20T15:05:01.108Z,3
2022-08-20T15:06:01.120Z,2
2022-08-20T15:08:01.093Z,2
2022-08-20T15:09:01.103Z,2
2022-08-20T15:10:01.123Z,2
2022-08-20T15:11:01.093Z,2
2022-08-20T15:12:01.097Z,2
2022-08-20T15:13:01.104Z,2
2022-08-20T15:14:01.099Z,2
2022-08-20T15:15:14.135Z,2
2022-08-20T15:16:01.112Z,2
2022-08-20T15:17:01.110Z,2
2022-08-20T15:18:01.110Z,2
2022-08-20T15:19:01.103Z,2
2022-08-20T15:20:01.141Z,2
2022-08-20T15:21:01.120Z,2
2022-08-20T15:22:01.116Z,2
2022-08-20T15:23:01.109Z,2
2022-08-20T15:24:01.124Z,2
2022-08-20T15:25:01.110Z,3
2022-08-20T15:27:01.108Z,3
2022-08-20T15:28:01.950Z,2
2022-08-20T15:30:01.145Z,2
2022-08-20T15:31:01.137Z,2
2022-08-20T15:32:01.122Z,2
2022-08-20T15:34:01.119Z,2
2022-08-20T15:35:01.117Z,3
2022-08-20T15:36:01.134Z,2
2022-08-20T15:39:01.120Z,2
2022-08-20T15:40:01.255Z,2
2022-08-20T15:41:01.115Z,2
2022-08-20T15:42:01.118Z,2
2022-08-20T15:43:01.453Z,3
2022-08-20T15:44:01.136Z,2
2022-08-20T15:45:01.161Z,3
2022-08-20T15:46:01.126Z,2
2022-08-20T15:48:01.136Z,2
2022-08-20T15:49:01.133Z,2
2022-08-20T15:50:01.130Z,2
2022-08-20T15:52:01.125Z,2
2022-08-20T15:53:01.126Z,2
2022-08-20T15:54:01.139Z,2
2022-08-20T15:55:01.128Z,2
2022-08-20T15:56:01.129Z,2
2022-08-20T15:57:01.129Z,2
2022-08-20T15:58:01.133Z,2
2022-08-20T15:59:01.138Z,2
2022-08-20T16:00:01.152Z,2
2022-08-20T16:01:04.969Z,2
2022-08-20T16:02:01.128Z,3
2022-08-20T16:03:01.130Z,2
2022-08-20T16:04:01.129Z,2
2022-08-20T16:05:01.133Z,2
2022-08-20T16:06:01.135Z,3
2022-08-20T16:07:01.133Z,2
2022-08-20T16:09:01.141Z,2
2022-08-20T16:10:01.128Z,2
2022-08-20T16:11:01.153Z,2
2022-08-20T16:12:01.141Z,2
2022-08-20T16:13:01.138Z,2
2022-08-20T16:14:01.141Z,2
2022-08-20T16:15:01.140Z,2
2022-08-20T16:16:01.140Z,2
2022-08-20T16:17:01.634Z,2
2022-08-20T16:18:01.133Z,2
2022-08-20T16:19:01.148Z,2
2022-08-20T16:22:01.141Z,2
2022-08-20T16:23:01.147Z,2
2022-08-20T16:25:01.141Z,2
2022-08-20T16:26:01.151Z,2
2022-08-20T16:27:01.142Z,2
2022-08-20T16:28:01.142Z,2
2022-08-20T16:29:01.153Z,2
2022-08-20T16:30:01.140Z,2
2022-08-20T16:31:01.149Z,2
2022-08-20T16:32:01.143Z,2
2022-08-20T16:33:01.154Z,2
2022-08-20T16:34:01.153Z,2
2022-08-20T16:35:01.206Z,2
2022-08-20T16:36:01.153Z,2
2022-08-20T16:37:03.316Z,2